This is the latest recevied weather packets stored in our database for station/object FW0690. If no packets are shown the sender has not sent any weather packets the latest 10 day(s).
| Time | Temp. | Humidity | Pressure | Rain* | Wind** | Luminosity | Snow |
|---|---|---|---|---|---|---|---|
| 1777905518 | 23.33° C | 27% | 1012.8 hPa | - | - | 48 W/m² | - |
| 1777905158 | 23.33° C | 26% | 1012.9 hPa | - | - | 45 W/m² | - |
| 1777904798 | 23.33° C | 26% | 1012.9 hPa | - | - | 40 W/m² | - |
| 1777904438 | 23.33° C | 26% | 1013 hPa | - | - | 49 W/m² | - |
| 1777904078 | 23.33° C | 26% | 1013 hPa | - | - | 48 W/m² | - |
| 1777903718 | 23.33° C | 25% | 1013 hPa | - | - | 56 W/m² | - |
| 1777903358 | 23.89° C | 25% | 1012.9 hPa | - | - | 61 W/m² | - |
| 1777902998 | 23.89° C | 25% | 1012.9 hPa | - | - | 59 W/m² | - |
| 1777902638 | 23.89° C | 25% | 1012.9 hPa | - | - | 52 W/m² | - |
| 1777902278 | 23.89° C | 25% | 1013 hPa | - | - | 44 W/m² | - |
| 1777901918 | 23.89° C | 24% | 1013 hPa | - | - | 40 W/m² | - |
| 1777901558 | 23.89° C | 23% | 1013.1 hPa | - | - | 39 W/m² | - |
| 1777901198 | 24.44° C | 23% | 1013.1 hPa | - | - | 41 W/m² | - |
| 1777900838 | 24.44° C | 22% | 1013.1 hPa | - | - | 56 W/m² | - |
| 1777900478 | 25° C | 22% | 1013.1 hPa | - | - | 45 W/m² | - |
| 1777900118 | 25° C | 21% | 1013.1 hPa | - | - | 46 W/m² | - |
| 1777899758 | 26.11° C | 21% | 1013.1 hPa | - | - | 72 W/m² | - |
| 1777899398 | 26.11° C | 20% | 1013.2 hPa | - | - | 40 W/m² | - |
| 1777899038 | 27.22° C | 20% | 1013.3 hPa | - | - | 41 W/m² | - |
| 1777898678 | 28.89° C | 20% | 1013.5 hPa | - | - | 74 W/m² | - |
| 1777898318 | 29.44° C | 20% | 1013.5 hPa | - | - | 76 W/m² | - |
| 1777897958 | 30° C | 21% | 1013.6 hPa | - | - | 71 W/m² | - |
| 1777897598 | 28.89° C | 21% | 1013.5 hPa | - | - | 68 W/m² | - |
| 1777897238 | 27.78° C | 21% | 1013.6 hPa | - | - | 61 W/m² | - |
| 1777896878 | 27.78° C | 21% | 1013.5 hPa | - | - | 53 W/m² | - |
* Rain since midnight (hover to see other rain measurements)
** Current wind speed in m/s (hover to see current wind gust speed)